createdAt,value
2019-01-15T00:02:06.187Z,11.23
2019-01-15T00:04:32.926Z,17.57
2019-01-15T00:06:59.423Z,12.90
2019-01-15T00:09:25.949Z,16.53
2019-01-15T00:11:53.060Z,12.20
2019-01-15T00:14:19.620Z,11.93
2019-01-15T00:16:46.269Z,13.63
2019-01-15T00:19:12.957Z,11.33
2019-01-15T00:21:39.635Z,11.13
2019-01-15T00:24:06.115Z,12.40
2019-01-15T00:26:32.546Z,12.33
2019-01-15T00:28:59.060Z,17.43
2019-01-15T00:31:25.681Z,22.20
2019-01-15T00:33:52.218Z,16.10
2019-01-15T00:36:18.664Z,11.40
2019-01-15T00:38:45.340Z,15.77
2019-01-15T00:41:11.729Z,11.10
2019-01-15T00:43:38.158Z,11.10
2019-01-15T00:46:04.797Z,13.27
2019-01-15T00:48:31.501Z,13.93
2019-01-15T00:50:57.787Z,17.53
2019-01-15T00:53:24.217Z,15.13
2019-01-15T00:55:50.728Z,17.13
2019-01-15T00:58:17.165Z,14.97
2019-01-15T01:00:43.919Z,12.60
2019-01-15T01:03:10.493Z,9.43
2019-01-15T01:05:37.164Z,11.47
2019-01-15T01:08:03.748Z,16.70
2019-01-15T01:10:30.365Z,13.03
2019-01-15T01:12:56.770Z,12.97
2019-01-15T01:15:23.284Z,12.20
2019-01-15T01:17:49.896Z,15.43
2019-01-15T01:20:20.480Z,13.07
2019-01-15T01:22:47.274Z,12.10
2019-01-15T01:25:13.779Z,12.67
2019-01-15T01:27:40.161Z,10.07
2019-01-15T01:30:14.447Z,17.93
2019-01-15T01:32:40.975Z,19.33
2019-01-15T01:35:07.810Z,18.00
2019-01-15T01:37:34.633Z,14.00
2019-01-15T01:40:01.301Z,11.03
2019-01-15T01:42:29.625Z,10.17
2019-01-15T01:44:56.234Z,19.60
2019-01-15T01:47:22.760Z,20.60
2019-01-15T01:49:49.300Z,13.70
2019-01-15T01:52:15.737Z,19.23
2019-01-15T01:54:42.150Z,14.57
2019-01-15T01:57:08.531Z,13.00
2019-01-15T01:59:35.075Z,18.80
2019-01-15T02:02:01.604Z,12.80
2019-01-15T02:04:27.996Z,19.77
2019-01-15T02:06:54.536Z,15.80
2019-01-15T02:09:21.030Z,13.50
2019-01-15T02:11:47.606Z,16.23
2019-01-15T02:14:14.159Z,15.93
2019-01-15T02:16:40.794Z,16.63
2019-01-15T02:19:07.399Z,16.17
2019-01-15T02:21:33.665Z,19.60
2019-01-15T02:24:00.775Z,19.60
2019-01-15T02:26:27.265Z,16.70
2019-01-15T02:28:53.726Z,14.03
2019-01-15T02:31:20.135Z,16.47
2019-01-15T02:33:46.650Z,17.47
2019-01-15T02:36:13.010Z,16.90
2019-01-15T02:38:39.497Z,16.43
2019-01-15T02:41:06.031Z,16.33
2019-01-15T02:43:32.516Z,18.83
2019-01-15T02:45:59.031Z,18.97
2019-01-15T02:48:25.445Z,16.30
2019-01-15T02:50:51.862Z,15.17
2019-01-15T02:53:18.171Z,16.90
2019-01-15T02:55:44.570Z,18.97
2019-01-15T02:58:11.071Z,16.77
2019-01-15T03:00:37.554Z,19.90
2019-01-15T03:03:03.984Z,10.73
2019-01-15T03:05:30.380Z,23.23
2019-01-15T03:07:56.867Z,18.17
2019-01-15T03:10:23.362Z,16.03
2019-01-15T03:12:55.560Z,15.33
2019-01-15T03:15:19.965Z,18.00
2019-01-15T03:17:46.593Z,17.03
2019-01-15T03:20:15.984Z,26.70
2019-01-15T03:22:42.645Z,19.20
2019-01-15T03:25:09.617Z,18.23
2019-01-15T03:27:36.105Z,16.77
2019-01-15T03:30:10.726Z,20.03
2019-01-15T03:32:37.250Z,18.57
2019-01-15T03:35:05.506Z,19.33
2019-01-15T03:37:32.100Z,18.13
2019-01-15T03:39:58.520Z,18.83
2019-01-15T03:42:25.136Z,16.80
2019-01-15T03:44:51.947Z,18.33
2019-01-15T03:47:18.362Z,17.30
2019-01-15T03:49:44.744Z,17.23
2019-01-15T03:52:11.383Z,21.97
2019-01-15T03:54:37.958Z,21.40
2019-01-15T03:57:04.516Z,17.47
2019-01-15T03:59:31.124Z,17.20
2019-01-15T04:01:57.570Z,22.20
2019-01-15T04:04:24.079Z,18.47
2019-01-15T04:06:50.533Z,23.03
2019-01-15T04:09:16.931Z,19.17
2019-01-15T04:11:43.446Z,24.83
2019-01-15T04:14:09.741Z,16.73
2019-01-15T04:16:36.365Z,24.43
2019-01-15T04:19:03.079Z,24.17
2019-01-15T04:21:29.678Z,22.40
2019-01-15T04:23:56.079Z,16.03
2019-01-15T04:26:22.475Z,21.87
2019-01-15T04:28:48.891Z,25.17
2019-01-15T04:31:15.509Z,19.87
2019-01-15T04:33:42.000Z,22.87
2019-01-15T04:36:08.646Z,23.33
2019-01-15T04:38:34.915Z,19.90
2019-01-15T04:41:01.324Z,18.07
2019-01-15T04:43:27.925Z,26.13
2019-01-15T04:45:54.447Z,15.83
2019-01-15T04:48:21.722Z,16.27
2019-01-15T04:50:48.085Z,21.53
2019-01-15T04:53:14.490Z,19.67
2019-01-15T04:55:40.885Z,20.67
2019-01-15T04:58:07.268Z,16.33
2019-01-15T05:00:33.950Z,22.13
2019-01-15T05:03:01.104Z,19.93
2019-01-15T05:05:27.742Z,20.73
2019-01-15T05:07:54.202Z,20.03
2019-01-15T05:10:20.685Z,16.37
2019-01-15T05:12:47.305Z,21.10
2019-01-15T05:15:15.584Z,19.23
2019-01-15T05:17:42.180Z,16.90
2019-01-15T05:20:13.821Z,19.43
2019-01-15T05:22:40.636Z,16.20
2019-01-15T05:25:12.357Z,17.67
2019-01-15T05:27:38.772Z,18.17
2019-01-15T05:30:13.857Z,17.27
2019-01-15T05:32:40.233Z,17.60
2019-01-15T05:35:06.873Z,18.73
2019-01-15T05:37:33.264Z,18.67
2019-01-15T05:39:59.683Z,19.50
2019-01-15T05:42:26.369Z,21.70
2019-01-15T05:44:54.770Z,22.83
2019-01-15T05:47:23.175Z,17.27
2019-01-15T05:49:50.780Z,18.50
2019-01-15T05:52:17.520Z,15.87
2019-01-15T05:54:43.797Z,15.73
2019-01-15T05:57:10.391Z,22.27
2019-01-15T05:59:36.899Z,19.63
2019-01-15T06:02:03.535Z,20.67
2019-01-15T06:04:30.011Z,17.90
2019-01-15T06:06:56.529Z,19.60
2019-01-15T06:09:22.970Z,22.87
2019-01-15T06:11:49.469Z,20.30
2019-01-15T06:14:15.875Z,23.17
2019-01-15T06:16:42.261Z,22.23
2019-01-15T06:19:08.803Z,20.23
2019-01-15T06:21:35.092Z,25.60
2019-01-15T06:24:01.661Z,21.40
2019-01-15T06:26:28.270Z,21.70
2019-01-15T06:28:54.798Z,25.50
2019-01-15T06:31:21.414Z,21.00
2019-01-15T06:33:47.735Z,27.77
2019-01-15T06:36:14.177Z,25.50
2019-01-15T06:38:40.601Z,23.13
2019-01-15T06:41:07.057Z,23.03
2019-01-15T06:43:33.526Z,26.43
2019-01-15T06:46:00.240Z,22.03
2019-01-15T06:48:26.818Z,22.33
2019-01-15T06:50:53.338Z,19.97
2019-01-15T06:53:19.931Z,23.60
2019-01-15T06:55:46.569Z,18.00
2019-01-15T06:58:13.167Z,21.70
2019-01-15T07:00:39.591Z,27.43
2019-01-15T07:03:06.236Z,25.63
2019-01-15T07:05:32.637Z,22.77
2019-01-15T07:07:59.287Z,21.97
2019-01-15T07:10:32.499Z,19.87
2019-01-15T07:12:59.036Z,24.70
2019-01-15T07:15:25.527Z,25.23
2019-01-15T07:17:52.121Z,20.87
2019-01-15T07:20:18.806Z,23.90
2019-01-15T07:22:45.450Z,18.77
2019-01-15T07:25:16.604Z,20.77
2019-01-15T07:27:43.284Z,20.63
2019-01-15T07:30:18.021Z,18.10
2019-01-15T07:32:44.615Z,21.10
2019-01-15T07:35:11.318Z,27.50
2019-01-15T07:37:37.935Z,21.10
2019-01-15T07:40:11.245Z,20.67
2019-01-15T07:42:37.877Z,25.93
2019-01-15T07:45:09.611Z,25.97
2019-01-15T07:47:36.121Z,27.33
2019-01-15T07:50:07.852Z,26.30
2019-01-15T07:52:34.451Z,27.23
2019-01-15T07:55:01.060Z,28.17
2019-01-15T07:57:27.571Z,27.77
2019-01-15T07:59:53.955Z,33.23
2019-01-15T08:02:20.860Z,27.03
2019-01-15T08:04:47.385Z,30.53
2019-01-15T08:07:14.078Z,29.90
2019-01-15T08:09:40.497Z,30.97
2019-01-15T08:12:07.117Z,28.67
2019-01-15T08:14:33.795Z,29.20
2019-01-15T08:17:00.280Z,34.63
2019-01-15T08:19:26.791Z,28.83
2019-01-15T08:21:54.892Z,26.63
2019-01-15T08:24:21.727Z,25.53
2019-01-15T08:26:48.156Z,32.43
2019-01-15T08:29:14.490Z,29.17
2019-01-15T08:31:41.032Z,27.70
2019-01-15T08:34:07.409Z,26.80
2019-01-15T08:36:33.961Z,27.77
2019-01-15T08:39:00.552Z,27.33
2019-01-15T08:41:27.100Z,40.87
2019-01-15T08:43:53.495Z,27.83
2019-01-15T08:46:20.122Z,24.13
2019-01-15T08:48:46.745Z,27.03
2019-01-15T08:51:14.151Z,26.60
2019-01-15T08:53:41.332Z,24.33
2019-01-15T08:56:08.217Z,27.77
2019-01-15T08:58:34.707Z,28.33
2019-01-15T09:01:01.391Z,28.37
2019-01-15T09:03:27.911Z,28.33
2019-01-15T09:05:54.432Z,32.17
2019-01-15T09:08:21.102Z,30.47
2019-01-15T09:10:47.842Z,24.80
2019-01-15T09:13:14.552Z,37.57
2019-01-15T09:15:41.137Z,29.97
2019-01-15T09:18:07.765Z,29.50
2019-01-15T09:20:34.468Z,29.07
2019-01-15T09:23:01.032Z,35.90
2019-01-15T09:25:27.625Z,31.63
2019-01-15T09:27:54.192Z,33.03
2019-01-15T09:30:21.876Z,31.83
2019-01-15T09:32:48.625Z,27.93
2019-01-15T09:35:15.378Z,35.70
2019-01-15T09:37:42.798Z,29.67
2019-01-15T09:40:14.826Z,33.30
2019-01-15T09:42:41.227Z,29.70
2019-01-15T09:45:14.269Z,41.53
2019-01-15T09:47:42.567Z,33.23
2019-01-15T09:50:10.889Z,41.20
2019-01-15T09:52:37.502Z,35.10
2019-01-15T09:55:05.902Z,34.53
2019-01-15T09:57:32.417Z,37.33
2019-01-15T09:59:58.892Z,37.30
2019-01-15T10:02:25.437Z,39.03
2019-01-15T10:04:52.004Z,37.90
2019-01-15T10:07:18.512Z,47.40
2019-01-15T10:09:45.153Z,34.90
2019-01-15T10:12:11.687Z,38.97
2019-01-15T10:14:41.458Z,37.40
2019-01-15T10:17:06.998Z,35.87
2019-01-15T10:19:33.843Z,35.00
2019-01-15T10:22:00.343Z,33.30
2019-01-15T10:24:26.933Z,29.43
2019-01-15T10:26:55.016Z,39.93
2019-01-15T10:29:22.883Z,35.70
2019-01-15T10:32:27.871Z,38.07
2019-01-15T10:34:56.991Z,37.37
2019-01-15T10:37:23.618Z,35.47
2019-01-15T10:39:49.981Z,38.23
2019-01-15T10:42:16.523Z,32.10
2019-01-15T10:44:48.620Z,34.23
2019-01-15T10:47:11.525Z,32.83
2019-01-15T10:49:38.058Z,29.47
2019-01-15T10:52:04.722Z,27.83
2019-01-15T10:54:31.132Z,26.30
2019-01-15T10:56:57.795Z,24.80
2019-01-15T10:59:24.312Z,31.23
2019-01-15T11:01:50.757Z,29.33
2019-01-15T11:04:17.155Z,30.73
2019-01-15T11:06:43.699Z,33.43
2019-01-15T11:09:10.345Z,27.93
2019-01-15T11:11:36.849Z,29.90
2019-01-15T11:14:03.803Z,30.33
2019-01-15T11:16:30.331Z,30.57
2019-01-15T11:18:56.692Z,30.30
2019-01-15T11:21:23.203Z,30.60
2019-01-15T11:23:49.748Z,30.07
2019-01-15T11:26:16.338Z,33.80
2019-01-15T11:28:42.938Z,35.53
2019-01-15T11:31:09.472Z,31.87
2019-01-15T11:33:35.981Z,25.33
2019-01-15T11:36:02.796Z,30.80
2019-01-15T11:38:29.196Z,31.87
2019-01-15T11:40:55.792Z,33.77
2019-01-15T11:43:22.238Z,29.80
2019-01-15T11:45:48.776Z,28.30
2019-01-15T11:48:15.595Z,26.50
2019-01-15T11:50:42.222Z,28.07
2019-01-15T11:53:08.652Z,31.43
2019-01-15T11:55:35.453Z,22.23
2019-01-15T11:58:02.233Z,24.63
2019-01-15T12:00:37.499Z,24.97
2019-01-15T12:03:06.808Z,25.37
2019-01-15T12:05:51.814Z,26.13
2019-01-15T12:08:22.847Z,20.90
2019-01-15T12:10:57.272Z,26.70
2019-01-15T12:13:40.618Z,29.50
2019-01-15T12:16:25.504Z,26.00
2019-01-15T12:18:59.767Z,29.53
2019-01-15T12:21:28.232Z,22.50
2019-01-15T12:23:56.657Z,21.47
2019-01-15T12:26:31.147Z,20.47
2019-01-15T12:29:16.259Z,24.67
2019-01-15T12:32:01.418Z,24.10
2019-01-15T12:34:29.674Z,21.13
2019-01-15T12:37:14.659Z,22.70
2019-01-15T12:39:59.593Z,23.73
2019-01-15T12:42:36.727Z,22.50
2019-01-15T12:45:10.637Z,19.37
2019-01-15T12:47:44.739Z,29.30
2019-01-15T12:50:13.243Z,22.60
2019-01-15T12:52:58.319Z,18.07
2019-01-15T12:55:42.062Z,21.80
2019-01-15T12:58:16.256Z,16.13
2019-01-15T13:00:47.543Z,22.90
2019-01-15T13:03:18.617Z,18.37
2019-01-15T13:05:52.753Z,18.60
2019-01-15T13:08:39.222Z,20.37
2019-01-15T13:11:10.708Z,21.67
2019-01-15T13:13:54.192Z,21.83
2019-01-15T13:16:37.868Z,22.47
2019-01-15T13:19:09.652Z,20.20
2019-01-15T13:21:38.179Z,20.37
2019-01-15T13:24:07.667Z,14.00
2019-01-15T13:26:36.199Z,18.40
2019-01-15T13:29:21.414Z,21.10
2019-01-15T13:31:49.919Z,17.47
2019-01-15T13:34:21.344Z,17.90
2019-01-15T13:36:52.676Z,13.13
2019-01-15T13:39:29.905Z,18.13
2019-01-15T13:42:10.367Z,22.17
2019-01-15T13:44:38.928Z,16.70
2019-01-15T13:47:19.342Z,16.30
2019-01-15T13:49:53.754Z,17.47
2019-01-15T13:52:38.727Z,22.27
2019-01-15T13:55:24.501Z,19.27
2019-01-15T13:57:53.070Z,14.47
2019-01-15T14:00:21.532Z,14.27
2019-01-15T14:03:01.912Z,11.70
2019-01-15T14:05:46.962Z,12.97
2019-01-15T14:08:24.134Z,12.87
2019-01-15T14:10:52.727Z,15.97
2019-01-15T14:13:27.330Z,11.73
2019-01-15T14:16:04.967Z,18.90
2019-01-15T14:18:36.019Z,16.93
2019-01-15T14:21:10.860Z,17.43
2019-01-15T14:23:41.943Z,15.10
2019-01-15T14:26:16.554Z,15.73
2019-01-15T14:28:57.253Z,16.33
2019-01-15T14:31:28.643Z,12.93
2019-01-15T14:33:59.768Z,16.33
2019-01-15T14:36:30.928Z,14.67
2019-01-15T14:39:11.277Z,19.23
2019-01-15T14:41:48.734Z,17.60
2019-01-15T14:44:35.329Z,15.43
2019-01-15T14:47:03.879Z,14.97
2019-01-15T14:49:41.375Z,12.70
2019-01-15T14:52:12.690Z,8.97
2019-01-15T14:54:41.168Z,14.70
2019-01-15T14:57:15.570Z,12.33
2019-01-15T14:59:59.344Z,14.60
2019-01-15T15:02:42.835Z,10.00
2019-01-15T15:05:13.928Z,13.03
2019-01-15T15:07:54.309Z,16.67
2019-01-15T15:10:41.136Z,17.47
2019-01-15T15:13:12.289Z,16.33
2019-01-15T15:15:40.828Z,15.67
2019-01-15T15:18:24.532Z,12.33
2019-01-15T15:21:08.037Z,12.07
2019-01-15T15:23:36.520Z,14.83
2019-01-15T15:26:20.502Z,15.73
2019-01-15T15:28:51.784Z,14.47
2019-01-15T15:31:20.305Z,11.80
2019-01-15T15:34:05.490Z,16.70
2019-01-15T15:36:42.956Z,18.20
2019-01-15T15:39:11.637Z,12.47
2019-01-15T15:41:40.243Z,13.40
2019-01-15T15:44:11.299Z,13.13
2019-01-15T15:46:55.143Z,14.30
2019-01-15T15:49:26.168Z,16.47
2019-01-15T15:51:54.726Z,14.20
2019-01-15T15:54:39.939Z,13.13
2019-01-15T15:57:08.382Z,14.30
2019-01-15T15:59:39.549Z,14.50
2019-01-15T16:02:13.611Z,9.13
2019-01-15T16:04:45.063Z,15.10
2019-01-15T16:07:38.996Z,8.40
2019-01-15T16:10:29.871Z,17.80
2019-01-15T16:13:07.042Z,14.33
2019-01-15T16:15:38.678Z,12.30
2019-01-15T16:18:10.733Z,11.83
2019-01-15T16:20:39.239Z,12.80
2019-01-15T16:23:24.395Z,13.93
2019-01-15T16:25:55.904Z,15.30
2019-01-15T16:28:33.380Z,15.27
2019-01-15T16:31:07.539Z,12.63
2019-01-15T16:33:44.748Z,11.87
2019-01-15T16:36:15.818Z,13.50
2019-01-15T16:39:01.351Z,13.60
2019-01-15T16:41:30.093Z,14.93
2019-01-15T16:43:58.683Z,15.57
2019-01-15T16:46:43.851Z,13.83
2019-01-15T16:49:24.374Z,12.43
2019-01-15T16:51:58.696Z,11.10
2019-01-15T16:54:30.014Z,11.40
2019-01-15T16:57:04.512Z,12.73
2019-01-15T16:59:45.223Z,14.27
2019-01-15T17:02:25.779Z,12.70
2019-01-15T17:04:54.350Z,19.00
2019-01-15T17:07:31.658Z,9.70
2019-01-15T17:10:03.059Z,12.73
2019-01-15T17:12:34.745Z,13.77
2019-01-15T17:15:08.934Z,16.47
2019-01-15T17:17:49.539Z,12.00
2019-01-15T17:20:20.888Z,12.40
2019-01-15T17:23:06.122Z,12.00
2019-01-15T17:25:34.575Z,12.40
2019-01-15T17:28:03.189Z,14.57
2019-01-15T17:30:31.639Z,14.10
2019-01-15T17:33:04.411Z,11.27
2019-01-15T17:35:33.350Z,14.03
2019-01-15T17:38:07.735Z,15.00
2019-01-15T17:40:47.082Z,13.97
2019-01-15T17:43:24.617Z,13.53
2019-01-15T17:45:53.151Z,16.67
2019-01-15T17:48:27.224Z,14.23
2019-01-15T17:50:55.830Z,14.63
2019-01-15T17:53:28.644Z,15.53
2019-01-15T17:56:03.030Z,12.97
2019-01-15T17:58:31.779Z,16.13
2019-01-15T18:01:03.342Z,14.13
2019-01-15T18:03:40.819Z,12.83
2019-01-15T18:06:18.185Z,18.30
2019-01-15T18:08:58.835Z,20.63
2019-01-15T18:11:44.039Z,16.93
2019-01-15T18:14:27.188Z,14.87
2019-01-15T18:17:08.433Z,14.63
2019-01-15T18:19:46.258Z,17.57
2019-01-15T18:22:17.466Z,15.07
2019-01-15T18:24:52.015Z,16.33
2019-01-15T18:27:23.182Z,19.50
2019-01-15T18:29:54.550Z,12.00
2019-01-15T18:32:32.099Z,14.67
2019-01-15T18:35:00.948Z,20.40
2019-01-15T18:37:38.585Z,16.27
2019-01-15T18:40:17.299Z,17.37
2019-01-15T18:42:54.881Z,17.77
2019-01-15T18:45:29.273Z,18.27
2019-01-15T18:47:57.926Z,15.67
2019-01-15T18:50:26.608Z,14.53
2019-01-15T18:53:04.215Z,17.33
2019-01-15T18:55:32.968Z,16.00
2019-01-15T18:58:05.137Z,17.27
2019-01-15T19:00:45.694Z,19.27
2019-01-15T19:03:17.236Z,17.10
2019-01-15T19:06:04.085Z,18.40
2019-01-15T19:08:41.305Z,14.30
2019-01-15T19:11:10.474Z,15.90
2019-01-15T19:13:56.068Z,15.30
2019-01-15T19:16:42.849Z,13.63
2019-01-15T19:19:14.634Z,14.67
2019-01-15T19:21:43.243Z,19.20
2019-01-15T19:24:20.902Z,15.43
2019-01-15T19:26:55.374Z,14.67
2019-01-15T19:29:35.859Z,17.30
2019-01-15T19:32:10.434Z,15.67
2019-01-15T19:34:55.821Z,13.57
2019-01-15T19:37:24.496Z,15.90
2019-01-15T19:40:11.023Z,12.63
2019-01-15T19:42:39.813Z,16.00
2019-01-15T19:45:14.912Z,10.73
2019-01-15T19:47:43.770Z,18.47
2019-01-15T19:50:29.618Z,15.53
2019-01-15T19:53:04.252Z,15.10
2019-01-15T19:55:41.815Z,15.33
2019-01-15T19:58:10.851Z,17.57
2019-01-15T20:00:51.429Z,13.53
2019-01-15T20:03:22.533Z,15.23
2019-01-15T20:05:53.962Z,11.47
2019-01-15T20:08:25.847Z,11.70
2019-01-15T20:11:12.634Z,17.33
2019-01-15T20:13:46.915Z,12.27
2019-01-15T20:16:32.443Z,17.47
2019-01-15T20:19:18.323Z,11.37
2019-01-15T20:21:47.263Z,12.70
2019-01-15T20:24:18.835Z,13.13
2019-01-15T20:27:04.487Z,12.97
2019-01-15T20:29:48.346Z,14.40
2019-01-15T20:32:23.003Z,12.97
2019-01-15T20:34:57.823Z,15.63
2019-01-15T20:37:26.327Z,12.27
2019-01-15T20:40:00.966Z,13.37
2019-01-15T20:42:38.363Z,11.47
2019-01-15T20:45:28.623Z,11.17
2019-01-15T20:47:57.329Z,11.20
2019-01-15T20:50:31.695Z,12.63
2019-01-15T20:53:00.092Z,11.57
2019-01-15T20:55:38.139Z,13.30
2019-01-15T20:58:09.335Z,11.93
2019-01-15T21:00:38.103Z,15.87
2019-01-15T21:03:06.735Z,13.67
2019-01-15T21:05:38.307Z,12.13
2019-01-15T21:08:16.069Z,12.00
2019-01-15T21:10:50.495Z,13.60
2019-01-15T21:13:35.735Z,11.00
2019-01-15T21:16:16.370Z,13.87
2019-01-15T21:18:45.078Z,13.20
2019-01-15T21:21:22.620Z,11.43
2019-01-15T21:24:03.287Z,14.93
2019-01-15T21:26:46.801Z,14.33
2019-01-15T21:29:33.588Z,10.23
2019-01-15T21:32:10.836Z,12.70
2019-01-15T21:34:56.016Z,14.07
2019-01-15T21:37:24.594Z,13.00
2019-01-15T21:40:11.224Z,11.43
2019-01-15T21:42:40.041Z,11.97
2019-01-15T21:45:08.840Z,13.07
2019-01-15T21:47:43.268Z,11.00
2019-01-15T21:50:21.125Z,14.97
2019-01-15T21:53:06.171Z,14.10
2019-01-15T21:55:51.243Z,11.10
2019-01-15T21:58:25.545Z,11.30
2019-01-15T22:00:54.170Z,13.60
2019-01-15T22:03:41.487Z,15.70
2019-01-15T22:06:10.100Z,13.50
2019-01-15T22:08:41.647Z,18.17
2019-01-15T22:11:12.948Z,12.70
2019-01-15T22:13:41.299Z,11.67
2019-01-15T22:16:15.636Z,11.13
2019-01-15T22:18:50.255Z,16.60
2019-01-15T22:21:27.614Z,9.57
2019-01-15T22:23:58.959Z,14.97
2019-01-15T22:26:44.124Z,11.90
2019-01-15T22:29:12.724Z,14.37
2019-01-15T22:31:47.146Z,11.37
2019-01-15T22:34:18.522Z,13.00
2019-01-15T22:36:56.155Z,12.70
2019-01-15T22:39:41.347Z,11.60
2019-01-15T22:42:15.719Z,14.33
2019-01-15T22:44:44.356Z,12.10
2019-01-15T22:47:12.923Z,12.27
2019-01-15T22:49:56.508Z,12.30
2019-01-15T22:52:24.938Z,14.97
2019-01-15T22:55:09.799Z,15.40
2019-01-15T22:57:44.241Z,13.93
2019-01-15T23:00:40.938Z,12.63
2019-01-15T23:03:15.345Z,15.17
2019-01-15T23:05:59.319Z,12.87
2019-01-15T23:08:44.288Z,14.10
2019-01-15T23:11:12.854Z,15.30
2019-01-15T23:13:59.585Z,11.50
2019-01-15T23:16:28.140Z,11.53
2019-01-15T23:19:02.984Z,14.03
2019-01-15T23:21:40.814Z,12.77
2019-01-15T23:24:18.280Z,16.87
2019-01-15T23:26:46.760Z,12.50
2019-01-15T23:29:26.965Z,15.87
2019-01-15T23:31:58.060Z,13.23
2019-01-15T23:34:26.416Z,14.60
2019-01-15T23:37:06.963Z,15.07
2019-01-15T23:39:41.284Z,12.17
2019-01-15T23:42:15.785Z,13.57
2019-01-15T23:45:01.218Z,15.27
2019-01-15T23:47:32.523Z,15.27
2019-01-15T23:50:17.484Z,12.93
2019-01-15T23:52:45.939Z,14.83
2019-01-15T23:55:23.285Z,12.97
2019-01-15T23:57:54.663Z,15.40
